sensor_id;sensor_type;location;lat;lon;timestamp;pressure;altitude;pressure_sealevel;temperature;humidity
58223;BME280;44020;50.890;15.796;2022-08-19T00:01:46;96875.90;;;22.19;68.55
58223;BME280;44020;50.890;15.796;2022-08-19T00:04:16;96871.27;;;22.13;68.76
58223;BME280;44020;50.890;15.796;2022-08-19T00:06:46;96863.31;;;22.08;68.96
58223;BME280;44020;50.890;15.796;2022-08-19T00:09:16;96862.10;;;22.06;69.24
58223;BME280;44020;50.890;15.796;2022-08-19T00:11:45;96857.02;;;22.01;68.92
58223;BME280;44020;50.890;15.796;2022-08-19T00:14:15;96861.59;;;21.96;69.07
58223;BME280;44020;50.890;15.796;2022-08-19T00:16:44;96857.21;;;21.91;69.26
58223;BME280;44020;50.890;15.796;2022-08-19T00:19:13;96862.58;;;21.85;69.47
58223;BME280;44020;50.890;15.796;2022-08-19T00:21:41;96864.60;;;21.82;69.61
58223;BME280;44020;50.890;15.796;2022-08-19T00:24:10;96864.14;;;21.81;69.79
58223;BME280;44020;50.890;15.796;2022-08-19T00:26:38;96856.71;;;21.82;69.90
58223;BME280;44020;50.890;15.796;2022-08-19T00:29:06;96856.53;;;21.79;69.72
58223;BME280;44020;50.890;15.796;2022-08-19T00:31:34;96858.04;;;21.73;69.85
58223;BME280;44020;50.890;15.796;2022-08-19T00:34:02;96858.89;;;21.69;70.19
58223;BME280;44020;50.890;15.796;2022-08-19T00:36:29;96862.20;;;21.65;70.27
58223;BME280;44020;50.890;15.796;2022-08-19T00:38:56;96864.73;;;21.63;70.24
58223;BME280;44020;50.890;15.796;2022-08-19T00:41:24;96864.09;;;21.60;70.58
58223;BME280;44020;50.890;15.796;2022-08-19T00:46:31;96853.61;;;21.53;70.33
58223;BME280;44020;50.890;15.796;2022-08-19T00:49:02;96848.69;;;21.47;70.33
58223;BME280;44020;50.890;15.796;2022-08-19T00:51:33;96849.90;;;21.42;70.26
58223;BME280;44020;50.890;15.796;2022-08-19T00:54:02;96843.67;;;21.38;70.25
58223;BME280;44020;50.890;15.796;2022-08-19T00:56:30;96838.72;;;21.34;70.34
58223;BME280;44020;50.890;15.796;2022-08-19T00:58:58;96834.92;;;21.34;70.40
58223;BME280;44020;50.890;15.796;2022-08-19T01:01:26;96830.96;;;21.33;70.39
58223;BME280;44020;50.890;15.796;2022-08-19T01:03:54;96829.31;;;21.31;70.15
58223;BME280;44020;50.890;15.796;2022-08-19T01:06:21;96823.60;;;21.26;70.21
58223;BME280;44020;50.890;15.796;2022-08-19T01:08:48;96827.27;;;21.18;70.04
58223;BME280;44020;50.890;15.796;2022-08-19T01:11:15;96822.39;;;21.13;70.40
58223;BME280;44020;50.890;15.796;2022-08-19T01:13:42;96823.77;;;21.09;70.53
58223;BME280;44020;50.890;15.796;2022-08-19T01:16:10;96824.27;;;21.05;70.77
58223;BME280;44020;50.890;15.796;2022-08-19T01:18:41;96824.53;;;21.00;70.60
58223;BME280;44020;50.890;15.796;2022-08-19T01:23:57;96822.96;;;20.91;71.04
58223;BME280;44020;50.890;15.796;2022-08-19T01:26:25;96825.13;;;20.88;71.32
58223;BME280;44020;50.890;15.796;2022-08-19T01:28:55;96824.70;;;20.87;71.41
58223;BME280;44020;50.890;15.796;2022-08-19T01:31:26;96827.27;;;20.84;71.22
58223;BME280;44020;50.890;15.796;2022-08-19T01:33:55;96821.20;;;20.81;71.34
58223;BME280;44020;50.890;15.796;2022-08-19T01:39:04;96822.90;;;20.73;71.21
58223;BME280;44020;50.890;15.796;2022-08-19T01:41:32;96820.15;;;20.68;71.29
58223;BME280;44020;50.890;15.796;2022-08-19T01:44:00;96815.73;;;20.63;71.49
58223;BME280;44020;50.890;15.796;2022-08-19T01:46:30;96813.69;;;20.59;71.59
58223;BME280;44020;50.890;15.796;2022-08-19T01:48:58;96809.12;;;20.55;71.64
58223;BME280;44020;50.890;15.796;2022-08-19T01:51:26;96809.86;;;20.50;71.74
58223;BME280;44020;50.890;15.796;2022-08-19T01:53:54;96818.77;;;20.45;71.92
58223;BME280;44020;50.890;15.796;2022-08-19T01:56:21;96811.15;;;20.43;72.08
58223;BME280;44020;50.890;15.796;2022-08-19T01:58:55;96810.34;;;20.40;72.13
58223;BME280;44020;50.890;15.796;2022-08-19T02:01:23;96797.66;;;20.38;72.11
58223;BME280;44020;50.890;15.796;2022-08-19T02:03:50;96797.19;;;20.33;72.04
58223;BME280;44020;50.890;15.796;2022-08-19T02:06:19;96801.46;;;20.28;72.10
58223;BME280;44020;50.890;15.796;2022-08-19T02:08:47;96802.76;;;20.25;72.26
58223;BME280;44020;50.890;15.796;2022-08-19T02:11:21;96807.27;;;20.23;72.34
58223;BME280;44020;50.890;15.796;2022-08-19T02:13:49;96808.61;;;20.20;72.39
58223;BME280;44020;50.890;15.796;2022-08-19T02:16:17;96806.43;;;20.18;72.22
58223;BME280;44020;50.890;15.796;2022-08-19T02:18:46;96808.92;;;20.14;72.04
58223;BME280;44020;50.890;15.796;2022-08-19T02:21:19;96809.70;;;20.09;72.26
58223;BME280;44020;50.890;15.796;2022-08-19T02:23:47;96816.55;;;20.08;72.30
58223;BME280;44020;50.890;15.796;2022-08-19T02:26:14;96815.69;;;20.05;72.15
58223;BME280;44020;50.890;15.796;2022-08-19T02:28:41;96810.24;;;20.02;72.11
58223;BME280;44020;50.890;15.796;2022-08-19T02:31:15;96805.75;;;19.99;72.27
58223;BME280;44020;50.890;15.796;2022-08-19T02:33:43;96808.34;;;19.97;72.22
58223;BME280;44020;50.890;15.796;2022-08-19T02:36:11;96810.06;;;19.92;72.36
58223;BME280;44020;50.890;15.796;2022-08-19T02:38:40;96806.35;;;19.90;72.47
58223;BME280;44020;50.890;15.796;2022-08-19T02:41:14;96804.76;;;19.90;72.65
58223;BME280;44020;50.890;15.796;2022-08-19T02:43:42;96807.85;;;19.91;72.77
58223;BME280;44020;50.890;15.796;2022-08-19T02:48:44;96799.14;;;19.90;72.80
58223;BME280;44020;50.890;15.796;2022-08-19T02:51:19;96798.05;;;19.88;72.89
58223;BME280;44020;50.890;15.796;2022-08-19T02:53:46;96799.56;;;19.87;72.75
58223;BME280;44020;50.890;15.796;2022-08-19T02:56:14;96803.16;;;19.82;72.77
58223;BME280;44020;50.890;15.796;2022-08-19T02:58:42;96805.71;;;19.77;72.70
58223;BME280;44020;50.890;15.796;2022-08-19T03:01:10;96805.52;;;19.74;72.76
58223;BME280;44020;50.890;15.796;2022-08-19T03:03:38;96809.62;;;19.73;72.70
58223;BME280;44020;50.890;15.796;2022-08-19T03:06:08;96818.03;;;19.71;72.71
58223;BME280;44020;50.890;15.796;2022-08-19T03:08:36;96822.34;;;19.68;72.77
58223;BME280;44020;50.890;15.796;2022-08-19T03:11:04;96822.41;;;19.65;72.81
58223;BME280;44020;50.890;15.796;2022-08-19T03:13:31;96819.80;;;19.59;72.57
58223;BME280;44020;50.890;15.796;2022-08-19T03:15:58;96829.19;;;19.50;72.86
58223;BME280;44020;50.890;15.796;2022-08-19T03:18:25;96839.55;;;19.45;73.13
58223;BME280;44020;50.890;15.796;2022-08-19T03:20:52;96847.27;;;19.44;73.26
58223;BME280;44020;50.890;15.796;2022-08-19T03:23:22;96848.89;;;19.42;73.38
58223;BME280;44020;50.890;15.796;2022-08-19T03:25:52;96840.59;;;19.39;73.65
58223;BME280;44020;50.890;15.796;2022-08-19T03:28:21;96844.95;;;19.39;73.68
58223;BME280;44020;50.890;15.796;2022-08-19T03:31:06;96849.02;;;19.36;73.60
58223;BME280;44020;50.890;15.796;2022-08-19T03:33:34;96852.58;;;19.32;73.57
58223;BME280;44020;50.890;15.796;2022-08-19T03:36:09;96861.73;;;19.30;73.47
58223;BME280;44020;50.890;15.796;2022-08-19T03:38:39;96865.56;;;19.26;73.43
58223;BME280;44020;50.890;15.796;2022-08-19T03:41:10;96866.90;;;19.24;73.45
58223;BME280;44020;50.890;15.796;2022-08-19T03:43:39;96867.14;;;19.20;73.47
58223;BME280;44020;50.890;15.796;2022-08-19T03:46:10;96864.85;;;19.15;73.52
58223;BME280;44020;50.890;15.796;2022-08-19T03:48:39;96859.24;;;19.12;73.67
58223;BME280;44020;50.890;15.796;2022-08-19T03:51:08;96863.05;;;19.09;73.71
58223;BME280;44020;50.890;15.796;2022-08-19T03:53:41;96862.20;;;19.06;73.87
58223;BME280;44020;50.890;15.796;2022-08-19T03:56:10;96855.66;;;19.02;73.99
58223;BME280;44020;50.890;15.796;2022-08-19T03:58:37;96863.00;;;18.99;74.08
58223;BME280;44020;50.890;15.796;2022-08-19T04:01:07;96864.91;;;18.97;74.30
58223;BME280;44020;50.890;15.796;2022-08-19T04:03:36;96864.70;;;18.97;74.26
58223;BME280;44020;50.890;15.796;2022-08-19T04:06:25;96862.39;;;18.95;74.41
58223;BME280;44020;50.890;15.796;2022-08-19T04:08:54;96864.49;;;18.94;74.47
58223;BME280;44020;50.890;15.796;2022-08-19T04:11:28;96867.97;;;18.93;74.55
58223;BME280;44020;50.890;15.796;2022-08-19T04:13:56;96865.68;;;18.93;74.64
58223;BME280;44020;50.890;15.796;2022-08-19T04:16:25;96864.96;;;18.91;74.66
58223;BME280;44020;50.890;15.796;2022-08-19T04:18:56;96863.41;;;18.89;74.72
58223;BME280;44020;50.890;15.796;2022-08-19T04:21:26;96868.29;;;18.88;74.78
58223;BME280;44020;50.890;15.796;2022-08-19T04:23:55;96867.80;;;18.87;75.08
58223;BME280;44020;50.890;15.796;2022-08-19T04:26:31;96864.89;;;18.87;75.22
58223;BME280;44020;50.890;15.796;2022-08-19T04:29:04;96860.77;;;18.87;75.24
58223;BME280;44020;50.890;15.796;2022-08-19T04:31:32;96861.70;;;18.87;75.35
58223;BME280;44020;50.890;15.796;2022-08-19T04:34:07;96868.95;;;18.85;75.41
58223;BME280;44020;50.890;15.796;2022-08-19T04:36:36;96862.69;;;18.85;75.53
58223;BME280;44020;50.890;15.796;2022-08-19T04:39:10;96866.01;;;18.86;75.68
58223;BME280;44020;50.890;15.796;2022-08-19T04:41:37;96863.06;;;18.88;75.85
58223;BME280;44020;50.890;15.796;2022-08-19T04:44:23;96865.84;;;18.90;75.90
58223;BME280;44020;50.890;15.796;2022-08-19T04:46:50;96864.84;;;18.90;76.07
58223;BME280;44020;50.890;15.796;2022-08-19T04:49:20;96867.84;;;18.90;76.10
58223;BME280;44020;50.890;15.796;2022-08-19T04:51:50;96872.38;;;18.91;76.15
58223;BME280;44020;50.890;15.796;2022-08-19T04:54:18;96866.62;;;18.91;76.27
58223;BME280;44020;50.890;15.796;2022-08-19T04:56:49;96865.52;;;18.91;76.39
58223;BME280;44020;50.890;15.796;2022-08-19T04:59:18;96858.75;;;18.94;76.50
58223;BME280;44020;50.890;15.796;2022-08-19T05:01:47;96863.30;;;18.97;76.58
58223;BME280;44020;50.890;15.796;2022-08-19T05:04:20;96873.61;;;19.01;76.64
58223;BME280;44020;50.890;15.796;2022-08-19T05:06:48;96885.55;;;19.03;76.75
58223;BME280;44020;50.890;15.796;2022-08-19T05:09:15;96882.78;;;19.07;76.77
58223;BME280;44020;50.890;15.796;2022-08-19T05:11:43;96881.49;;;19.11;76.78
58223;BME280;44020;50.890;15.796;2022-08-19T05:14:11;96883.04;;;19.17;76.93
58223;BME280;44020;50.890;15.796;2022-08-19T05:16:41;96879.53;;;19.21;76.93
58223;BME280;44020;50.890;15.796;2022-08-19T05:19:11;96880.50;;;19.25;77.08
58223;BME280;44020;50.890;15.796;2022-08-19T05:21:57;96885.44;;;19.31;77.05
58223;BME280;44020;50.890;15.796;2022-08-19T05:25:04;96894.22;;;19.37;77.08
58223;BME280;44020;50.890;15.796;2022-08-19T05:27:33;96898.36;;;19.41;77.09
58223;BME280;44020;50.890;15.796;2022-08-19T05:30:00;96900.95;;;19.48;77.05
58223;BME280;44020;50.890;15.796;2022-08-19T05:32:28;96897.73;;;19.55;76.86
58223;BME280;44020;50.890;15.796;2022-08-19T05:34:56;96898.31;;;19.62;76.72
58223;BME280;44020;50.890;15.796;2022-08-19T05:37:23;96903.66;;;19.69;76.49
58223;BME280;44020;50.890;15.796;2022-08-19T05:39:53;96905.31;;;19.75;76.33
58223;BME280;44020;50.890;15.796;2022-08-19T05:42:22;96909.39;;;19.80;76.45
58223;BME280;44020;50.890;15.796;2022-08-19T05:44:50;96912.52;;;19.87;76.36
58223;BME280;44020;50.890;15.796;2022-08-19T05:47:17;96917.23;;;19.94;76.13
58223;BME280;44020;50.890;15.796;2022-08-19T05:49:46;96923.45;;;20.01;76.11
58223;BME280;44020;50.890;15.796;2022-08-19T05:52:15;96927.23;;;20.08;76.33
58223;BME280;44020;50.890;15.796;2022-08-19T05:54:42;96939.44;;;20.16;76.46
58223;BME280;44020;50.890;15.796;2022-08-19T05:57:10;96937.59;;;20.25;76.67
58223;BME280;44020;50.890;15.796;2022-08-19T05:59:37;96937.77;;;20.34;76.46
58223;BME280;44020;50.890;15.796;2022-08-19T06:02:06;96941.20;;;20.40;76.48
58223;BME280;44020;50.890;15.796;2022-08-19T06:04:33;96947.01;;;20.47;76.40
58223;BME280;44020;50.890;15.796;2022-08-19T06:07:00;96945.13;;;20.56;76.26
58223;BME280;44020;50.890;15.796;2022-08-19T06:09:29;96937.82;;;20.64;76.18
58223;BME280;44020;50.890;15.796;2022-08-19T06:11:58;96941.14;;;20.70;75.85
58223;BME280;44020;50.890;15.796;2022-08-19T06:14:29;96949.20;;;20.78;75.94
58223;BME280;44020;50.890;15.796;2022-08-19T06:16:57;96942.54;;;20.88;75.77
58223;BME280;44020;50.890;15.796;2022-08-19T06:19:27;96947.83;;;20.98;75.44
58223;BME280;44020;50.890;15.796;2022-08-19T06:21:56;96953.39;;;21.08;75.42
58223;BME280;44020;50.890;15.796;2022-08-19T06:24:27;96956.65;;;21.17;75.21
58223;BME280;44020;50.890;15.796;2022-08-19T06:26:56;96963.75;;;21.28;75.04
58223;BME280;44020;50.890;15.796;2022-08-19T06:29:25;96962.92;;;21.38;74.41
58223;BME280;44020;50.890;15.796;2022-08-19T06:31:53;96964.61;;;21.50;74.26
58223;BME280;44020;50.890;15.796;2022-08-19T06:34:23;96979.23;;;21.60;73.96
58223;BME280;44020;50.890;15.796;2022-08-19T06:36:51;96985.73;;;21.70;73.64
58223;BME280;44020;50.890;15.796;2022-08-19T06:39:22;96986.46;;;21.78;73.31
58223;BME280;44020;50.890;15.796;2022-08-19T06:41:52;96993.09;;;21.87;72.95
58223;BME280;44020;50.890;15.796;2022-08-19T06:44:23;97000.89;;;21.97;72.72
58223;BME280;44020;50.890;15.796;2022-08-19T06:46:53;97009.14;;;22.07;72.79
58223;BME280;44020;50.890;15.796;2022-08-19T06:49:21;97006.00;;;22.18;72.69
58223;BME280;44020;50.890;15.796;2022-08-19T06:51:49;97011.64;;;22.25;72.11
58223;BME280;44020;50.890;15.796;2022-08-19T06:54:17;97007.06;;;22.34;71.61
58223;BME280;44020;50.890;15.796;2022-08-19T06:56:44;97007.48;;;22.44;71.27
58223;BME280;44020;50.890;15.796;2022-08-19T06:59:18;97006.23;;;22.57;71.31
58223;BME280;44020;50.890;15.796;2022-08-19T07:01:47;97000.90;;;22.71;71.14
58223;BME280;44020;50.890;15.796;2022-08-19T07:04:20;97005.89;;;22.84;70.70
58223;BME280;44020;50.890;15.796;2022-08-19T07:06:49;97009.26;;;22.97;70.39
58223;BME280;44020;50.890;15.796;2022-08-19T07:09:17;97015.60;;;23.11;69.96
58223;BME280;44020;50.890;15.796;2022-08-19T07:11:50;97012.45;;;23.24;69.51
58223;BME280;44020;50.890;15.796;2022-08-19T07:14:21;97015.45;;;23.36;69.16
58223;BME280;44020;50.890;15.796;2022-08-19T07:16:49;97019.66;;;23.48;68.74
58223;BME280;44020;50.890;15.796;2022-08-19T07:19:18;97016.97;;;23.61;68.70
58223;BME280;44020;50.890;15.796;2022-08-19T07:21:50;97007.25;;;23.75;68.72
58223;BME280;44020;50.890;15.796;2022-08-19T07:24:22;97010.98;;;23.89;68.17
58223;BME280;44020;50.890;15.796;2022-08-19T07:26:55;97011.48;;;24.01;67.60
58223;BME280;44020;50.890;15.796;2022-08-19T07:29:23;97004.60;;;24.12;67.16
58223;BME280;44020;50.890;15.796;2022-08-19T07:31:51;97003.45;;;24.22;66.71
58223;BME280;44020;50.890;15.796;2022-08-19T07:34:18;97005.52;;;24.34;65.99
58223;BME280;44020;50.890;15.796;2022-08-19T07:36:45;97004.29;;;24.45;65.56
58223;BME280;44020;50.890;15.796;2022-08-19T07:39:29;97001.56;;;24.56;64.81
58223;BME280;44020;50.890;15.796;2022-08-19T07:41:58;97008.42;;;24.68;64.93
58223;BME280;44020;50.890;15.796;2022-08-19T07:44:26;97006.71;;;24.78;64.26
58223;BME280;44020;50.890;15.796;2022-08-19T07:46:56;97011.99;;;24.86;64.17
58223;BME280;44020;50.890;15.796;2022-08-19T07:49:23;97015.05;;;24.98;64.46
58223;BME280;44020;50.890;15.796;2022-08-19T07:52:00;97011.56;;;25.09;63.74
58223;BME280;44020;50.890;15.796;2022-08-19T07:54:32;97015.72;;;25.20;62.92
58223;BME280;44020;50.890;15.796;2022-08-19T07:57:02;97019.41;;;25.30;62.15
58223;BME280;44020;50.890;15.796;2022-08-19T07:59:29;97019.08;;;25.38;61.71
58223;BME280;44020;50.890;15.796;2022-08-19T08:01:57;97029.39;;;25.46;60.92
58223;BME280;44020;50.890;15.796;2022-08-19T08:04:28;97036.31;;;25.56;60.14
58223;BME280;44020;50.890;15.796;2022-08-19T08:07:13;97047.85;;;25.67;60.25
58223;BME280;44020;50.890;15.796;2022-08-19T08:09:59;97049.53;;;25.75;59.75
58223;BME280;44020;50.890;15.796;2022-08-19T08:12:30;97049.90;;;25.82;59.46
58223;BME280;44020;50.890;15.796;2022-08-19T08:15:00;97048.28;;;25.90;58.91
58223;BME280;44020;50.890;15.796;2022-08-19T08:17:31;97042.77;;;25.97;58.59
58223;BME280;44020;50.890;15.796;2022-08-19T08:19:58;97046.55;;;26.05;58.40
58223;BME280;44020;50.890;15.796;2022-08-19T08:22:26;97040.42;;;26.16;58.39
58223;BME280;44020;50.890;15.796;2022-08-19T08:25:14;97035.63;;;26.26;57.62
58223;BME280;44020;50.890;15.796;2022-08-19T08:27:44;97029.79;;;26.34;57.60
58223;BME280;44020;50.890;15.796;2022-08-19T08:30:21;97025.08;;;26.43;57.47
58223;BME280;44020;50.890;15.796;2022-08-19T08:32:49;97026.47;;;26.51;57.05
58223;BME280;44020;50.890;15.796;2022-08-19T08:35:19;97017.19;;;26.57;57.19
58223;BME280;44020;50.890;15.796;2022-08-19T08:37:48;97009.31;;;26.66;56.62
58223;BME280;44020;50.890;15.796;2022-08-19T08:40:28;97002.09;;;26.68;56.01
58223;BME280;44020;50.890;15.796;2022-08-19T08:43:06;96998.20;;;26.71;56.11
58223;BME280;44020;50.890;15.796;2022-08-19T08:45:41;96990.48;;;26.75;55.76
58223;BME280;44020;50.890;15.796;2022-08-19T08:48:18;96991.46;;;26.71;55.46
58223;BME280;44020;50.890;15.796;2022-08-19T08:50:48;96998.52;;;26.62;55.23
58223;BME280;44020;50.890;15.796;2022-08-19T08:53:20;97009.42;;;26.54;55.50
58223;BME280;44020;50.890;15.796;2022-08-19T08:55:46;97009.54;;;26.50;55.23
58223;BME280;44020;50.890;15.796;2022-08-19T08:58:41;97008.42;;;26.45;55.25
58223;BME280;44020;50.890;15.796;2022-08-19T09:01:11;97002.11;;;26.41;55.27
58223;BME280;44020;50.890;15.796;2022-08-19T09:03:40;97006.91;;;26.36;55.39
58223;BME280;44020;50.890;15.796;2022-08-19T09:09:20;97010.79;;;26.26;55.37
58223;BME280;44020;50.890;15.796;2022-08-19T09:14:36;97012.59;;;26.25;55.66
58223;BME280;44020;50.890;15.796;2022-08-19T09:17:09;97019.56;;;26.30;55.55
58223;BME280;44020;50.890;15.796;2022-08-19T09:19:48;97024.86;;;26.32;55.73
58223;BME280;44020;50.890;15.796;2022-08-19T09:22:16;97022.33;;;26.33;55.55
58223;BME280;44020;50.890;15.796;2022-08-19T09:24:43;97025.33;;;26.35;55.44
58223;BME280;44020;50.890;15.796;2022-08-19T09:27:11;97032.92;;;26.42;55.42
58223;BME280;44020;50.890;15.796;2022-08-19T09:29:38;97040.89;;;26.47;55.27
58223;BME280;44020;50.890;15.796;2022-08-19T09:32:05;97047.46;;;26.54;55.33
58223;BME280;44020;50.890;15.796;2022-08-19T09:34:32;97052.48;;;26.59;54.99
58223;BME280;44020;50.890;15.796;2022-08-19T09:36:59;97052.63;;;26.58;55.12
58223;BME280;44020;50.890;15.796;2022-08-19T09:39:26;97053.18;;;26.56;54.96
58223;BME280;44020;50.890;15.796;2022-08-19T09:41:53;97049.70;;;26.53;55.36
58223;BME280;44020;50.890;15.796;2022-08-19T09:44:20;97052.16;;;26.51;55.52
58223;BME280;44020;50.890;15.796;2022-08-19T09:46:46;97052.81;;;26.48;55.67
58223;BME280;44020;50.890;15.796;2022-08-19T09:49:15;97060.35;;;26.47;55.52
58223;BME280;44020;50.890;15.796;2022-08-19T09:51:43;97061.25;;;26.46;55.71
58223;BME280;44020;50.890;15.796;2022-08-19T09:54:10;97061.91;;;26.47;55.63
58223;BME280;44020;50.890;15.796;2022-08-19T09:56:37;97060.99;;;26.47;55.65
58223;BME280;44020;50.890;15.796;2022-08-19T09:59:04;97064.64;;;26.48;55.85
58223;BME280;44020;50.890;15.796;2022-08-19T10:01:33;97065.59;;;26.45;55.75
58223;BME280;44020;50.890;15.796;2022-08-19T10:04:00;97065.91;;;26.42;55.93
58223;BME280;44020;50.890;15.796;2022-08-19T10:06:29;97071.44;;;26.35;56.33
58223;BME280;44020;50.890;15.796;2022-08-19T10:09:00;97072.88;;;26.30;56.52
58223;BME280;44020;50.890;15.796;2022-08-19T10:11:29;97072.96;;;26.28;56.63
58223;BME280;44020;50.890;15.796;2022-08-19T10:13:55;97079.00;;;26.29;56.56
58223;BME280;44020;50.890;15.796;2022-08-19T10:16:23;97083.98;;;26.34;56.83
58223;BME280;44020;50.890;15.796;2022-08-19T10:18:53;97083.27;;;26.37;56.78
58223;BME280;44020;50.890;15.796;2022-08-19T10:21:23;97084.63;;;26.41;56.49
58223;BME280;44020;50.890;15.796;2022-08-19T10:23:55;97082.60;;;26.44;56.49
58223;BME280;44020;50.890;15.796;2022-08-19T10:26:26;97085.20;;;26.43;56.44
58223;BME280;44020;50.890;15.796;2022-08-19T10:28:54;97082.87;;;26.45;56.51
58223;BME280;44020;50.890;15.796;2022-08-19T10:31:27;97085.75;;;26.47;56.27
58223;BME280;44020;50.890;15.796;2022-08-19T10:33:55;97089.42;;;26.45;56.38
58223;BME280;44020;50.890;15.796;2022-08-19T10:36:31;97092.73;;;26.43;56.46
58223;BME280;44020;50.890;15.796;2022-08-19T10:39:00;97097.72;;;26.43;56.46
58223;BME280;44020;50.890;15.796;2022-08-19T10:41:31;97100.65;;;26.46;56.36
58223;BME280;44020;50.890;15.796;2022-08-19T10:44:04;97098.64;;;26.48;56.10
58223;BME280;44020;50.890;15.796;2022-08-19T10:46:33;97102.81;;;26.53;56.27
58223;BME280;44020;50.890;15.796;2022-08-19T10:49:03;97102.86;;;26.63;56.23
58223;BME280;44020;50.890;15.796;2022-08-19T10:51:31;97101.14;;;26.76;56.41
58223;BME280;44020;50.890;15.796;2022-08-19T10:54:17;97099.77;;;26.88;56.07
58223;BME280;44020;50.890;15.796;2022-08-19T10:56:44;97095.08;;;26.96;56.07
58223;BME280;44020;50.890;15.796;2022-08-19T10:59:28;97097.81;;;27.04;56.09
58223;BME280;44020;50.890;15.796;2022-08-19T11:02:00;97101.63;;;27.09;55.86
58223;BME280;44020;50.890;15.796;2022-08-19T11:04:27;97100.78;;;27.13;55.70
58223;BME280;44020;50.890;15.796;2022-08-19T11:06:55;97098.02;;;27.19;55.90
58223;BME280;44020;50.890;15.796;2022-08-19T11:09:24;97092.53;;;27.22;55.58
58223;BME280;44020;50.890;15.796;2022-08-19T11:11:52;97094.57;;;27.21;55.62
58223;BME280;44020;50.890;15.796;2022-08-19T11:14:20;97095.41;;;27.25;55.79
58223;BME280;44020;50.890;15.796;2022-08-19T11:16:48;97091.20;;;27.29;55.83
58223;BME280;44020;50.890;15.796;2022-08-19T11:19:16;97095.80;;;27.27;55.83
58223;BME280;44020;50.890;15.796;2022-08-19T11:21:47;97094.83;;;27.28;55.92
58223;BME280;44020;50.890;15.796;2022-08-19T11:24:21;97095.63;;;27.25;55.13
58223;BME280;44020;50.890;15.796;2022-08-19T11:26:51;97098.83;;;27.24;54.87
58223;BME280;44020;50.890;15.796;2022-08-19T11:29:20;97092.05;;;27.28;55.26
58223;BME280;44020;50.890;15.796;2022-08-19T11:31:49;97094.14;;;27.32;55.48
58223;BME280;44020;50.890;15.796;2022-08-19T11:34:19;97096.28;;;27.42;55.79
58223;BME280;44020;50.890;15.796;2022-08-19T11:36:48;97093.13;;;27.53;55.68
58223;BME280;44020;50.890;15.796;2022-08-19T11:39:17;97093.01;;;27.61;55.61
58223;BME280;44020;50.890;15.796;2022-08-19T11:41:44;97097.17;;;27.71;55.62
58223;BME280;44020;50.890;15.796;2022-08-19T11:44:11;97094.12;;;27.77;55.84
58223;BME280;44020;50.890;15.796;2022-08-19T11:46:42;97098.66;;;27.79;55.45
58223;BME280;44020;50.890;15.796;2022-08-19T11:49:14;97106.05;;;27.80;55.20
58223;BME280;44020;50.890;15.796;2022-08-19T11:51:42;97103.42;;;27.81;55.33
58223;BME280;44020;50.890;15.796;2022-08-19T11:54:15;97098.02;;;27.81;55.21
58223;BME280;44020;50.890;15.796;2022-08-19T11:56:44;97097.38;;;27.85;55.12
58223;BME280;44020;50.890;15.796;2022-08-19T11:59:11;97095.80;;;27.89;55.00
58223;BME280;44020;50.890;15.796;2022-08-19T12:01:38;97098.17;;;27.90;54.84
58223;BME280;44020;50.890;15.796;2022-08-19T12:04:07;97098.96;;;27.97;55.03
58223;BME280;44020;50.890;15.796;2022-08-19T12:06:37;97102.63;;;28.06;54.77
58223;BME280;44020;50.890;15.796;2022-08-19T12:09:06;97103.71;;;28.14;54.55
58223;BME280;44020;50.890;15.796;2022-08-19T12:11:35;97106.81;;;28.21;54.31
58223;BME280;44020;50.890;15.796;2022-08-19T12:14:03;97100.45;;;28.30;54.02
58223;BME280;44020;50.890;15.796;2022-08-19T12:16:31;97096.41;;;28.39;53.70
58223;BME280;44020;50.890;15.796;2022-08-19T12:19:00;97095.17;;;28.47;53.35
58223;BME280;44020;50.890;15.796;2022-08-19T12:21:33;97091.50;;;28.60;52.96
58223;BME280;44020;50.890;15.796;2022-08-19T12:24:01;97089.39;;;28.73;52.22
58223;BME280;44020;50.890;15.796;2022-08-19T12:26:29;97085.88;;;28.83;52.04
58223;BME280;44020;50.890;15.796;2022-08-19T12:28:58;97086.04;;;28.94;51.74
58223;BME280;44020;50.890;15.796;2022-08-19T12:31:29;97083.04;;;29.10;51.30
58223;BME280;44020;50.890;15.796;2022-08-19T12:33:56;97082.98;;;29.25;51.65
58223;BME280;44020;50.890;15.796;2022-08-19T12:36:23;97083.23;;;29.24;51.79
58223;BME280;44020;50.890;15.796;2022-08-19T12:38:52;97081.42;;;29.21;52.30
58223;BME280;44020;50.890;15.796;2022-08-19T12:41:20;97082.42;;;29.16;52.58
58223;BME280;44020;50.890;15.796;2022-08-19T12:43:49;97082.44;;;29.16;52.52
58223;BME280;44020;50.890;15.796;2022-08-19T12:46:17;97087.14;;;29.19;52.31
58223;BME280;44020;50.890;15.796;2022-08-19T12:48:44;97082.84;;;29.13;52.46
58223;BME280;44020;50.890;15.796;2022-08-19T12:51:16;97083.55;;;29.06;52.98
58223;BME280;44020;50.890;15.796;2022-08-19T12:53:43;97079.13;;;29.02;53.08
58223;BME280;44020;50.890;15.796;2022-08-19T12:56:12;97080.87;;;29.02;53.14
58223;BME280;44020;50.890;15.796;2022-08-19T12:58:42;97074.44;;;28.99;53.07
58223;BME280;44020;50.890;15.796;2022-08-19T13:01:11;97068.16;;;28.93;53.09
58223;BME280;44020;50.890;15.796;2022-08-19T13:03:39;97065.32;;;28.96;53.42
58223;BME280;44020;50.890;15.796;2022-08-19T13:06:07;97061.19;;;28.98;53.36
58223;BME280;44020;50.890;15.796;2022-08-19T13:08:35;97060.39;;;28.93;53.84
58223;BME280;44020;50.890;15.796;2022-08-19T13:11:15;97053.58;;;28.88;53.73
58223;BME280;44020;50.890;15.796;2022-08-19T13:13:45;97063.34;;;28.82;53.63
58223;BME280;44020;50.890;15.796;2022-08-19T13:16:13;97064.65;;;28.75;53.72
58223;BME280;44020;50.890;15.796;2022-08-19T13:18:41;97061.85;;;28.68;53.83
58223;BME280;44020;50.890;15.796;2022-08-19T13:21:09;97062.64;;;28.66;54.21